Photometre #358[Standard_N] Brussels AOT

File : 20220827_358.hum

27/08/2022,05:46:07,TEMP=14.8,BA=5.68,STAT.A=Abs.,ExtBa=13.05
27/08/2022,05:50:10,TEMP=15.0,BA=5.56,STAT.A=Abs.,ExtBa=12.97
27/08/2022,05:54:54,TEMP=15.2,BA=5.56,STAT.A=Abs.,ExtBa=12.95
27/08/2022,06:00:29,TEMP=15.3,BA=5.68,STAT.A=Abs.,ExtBa=12.91
27/08/2022,06:07:12,TEMP=15.5,BA=5.68,STAT.A=Abs.,ExtBa=12.88
27/08/2022,06:15:27,TEMP=15.6,BA=5.68,STAT.A=Abs.,ExtBa=12.90
27/08/2022,06:25:49,TEMP=16.0,BA=5.68,STAT.B=Abs.,ExtBa=12.92
27/08/2022,06:32:47,TEMP=16.8,BA=5.44,STAT.A=Abs.,ExtBa=12.62
27/08/2022,06:36:15,TEMP=17.1,BA=5.44,STAT.A=Abs.,ExtBa=12.72
27/08/2022,06:42:27,TEMP=17.6,BA=5.68,STAT.A=Abs.,ExtBa=12.79
27/08/2022,06:49:28,TEMP=18.0,BA=5.68,STAT.A=Abs.,ExtBa=12.79
27/08/2022,06:57:30,TEMP=18.0,BA=5.44,STAT.C=Abs.,ExtBa=12.84
27/08/2022,07:06:48,TEMP=18.3,BA=5.48,STAT.A=Abs.,ExtBa=12.69
27/08/2022,07:17:42,TEMP=18.3,BA=5.68,STAT.A=Abs.,ExtBa=12.86
27/08/2022,07:30:42,TEMP=19.3,BA=5.68,STAT.A=Abs.,ExtBa=12.91
27/08/2022,07:46:35,TEMP=20.9,BA=5.68,STAT.A=Abs.,ExtBa=12.97
27/08/2022,08:06:33,TEMP=22.1,BA=5.68,STAT.B=Abs.,ExtBa=13.01
27/08/2022,08:14:54,TEMP=22.7,BA=5.44,STAT.D=Abs.,ExtBa=12.69
27/08/2022,08:29:54,TEMP=23.0,BA=5.68,STAT.D=Abs.,ExtBa=12.89
27/08/2022,08:44:56,TEMP=23.6,BA=5.68,STAT.F,ExtBa=12.95
27/08/2022,08:59:54,TEMP=23.7,BA=5.48,STAT.D=Abs.,ExtBa=12.82
27/08/2022,09:14:55,TEMP=22.1,BA=5.68,STAT.D=Abs.,ExtBa=12.93
27/08/2022,09:29:54,TEMP=22.3,BA=5.68,STAT.D=Abs.,ExtBa=12.97
27/08/2022,09:44:56,TEMP=23.3,BA=5.68,STAT.F,ExtBa=13.01
27/08/2022,09:59:55,TEMP=21.5,BA=5.60,STAT.D=Abs.,ExtBa=13.03
27/08/2022,10:14:55,TEMP=22.5,BA=5.68,STAT.D=Abs.,ExtBa=13.04
27/08/2022,10:29:55,TEMP=21.2,BA=5.68,STAT.D=Abs.,ExtBa=13.05
27/08/2022,10:44:56,TEMP=21.1,BA=5.68,STAT.F,ExtBa=13.06
27/08/2022,10:59:55,TEMP=22.3,BA=5.68,STAT.D=Abs.,ExtBa=13.05
27/08/2022,11:14:55,TEMP=22.6,BA=5.68,STAT.D=Abs.,ExtBa=13.07
27/08/2022,11:29:55,TEMP=22.5,BA=5.68,STAT.D=Abs.,ExtBa=13.08
27/08/2022,11:44:57,TEMP=22.3,BA=5.68,STAT.F,ExtBa=13.08
27/08/2022,11:59:55,TEMP=21.9,BA=5.68,STAT.D=Abs.,ExtBa=13.08
27/08/2022,12:14:55,TEMP=22.0,BA=5.68,STAT.D=Abs.,ExtBa=13.08
27/08/2022,12:29:55,TEMP=23.1,BA=5.68,STAT.D=Abs.,ExtBa=13.09
27/08/2022,12:44:57,TEMP=22.5,BA=5.68,STAT.F,ExtBa=13.08
27/08/2022,12:59:55,TEMP=22.2,BA=5.68,STAT.D=Abs.,ExtBa=13.08
27/08/2022,13:14:55,TEMP=22.0,BA=5.68,STAT.D=Abs.,ExtBa=13.09
27/08/2022,13:29:55,TEMP=23.1,BA=5.68,STAT.D=Abs.,ExtBa=13.09
27/08/2022,13:44:56,TEMP=23.5,BA=5.68,STAT.F,ExtBa=13.07
27/08/2022,13:59:55,TEMP=21.8,BA=5.68,STAT.D=Abs.,ExtBa=13.07
27/08/2022,14:14:54,TEMP=21.1,BA=5.68,STAT.D=Abs.,ExtBa=13.08
27/08/2022,14:29:54,TEMP=21.0,BA=5.68,STAT.D=Abs.,ExtBa=13.08
27/08/2022,14:44:56,TEMP=21.0,BA=5.68,STAT.F,ExtBa=13.09
27/08/2022,14:59:54,TEMP=21.4,BA=5.68,STAT.D=Abs.,ExtBa=13.09
27/08/2022,15:14:54,TEMP=21.6,BA=5.68,STAT.D=Abs.,ExtBa=13.08
27/08/2022,15:23:19,TEMP=21.7,BA=5.68,STAT.B=Abs.,ExtBa=13.06
27/08/2022,15:43:16,TEMP=21.6,BA=5.68,STAT.A=Abs.,ExtBa=13.09
27/08/2022,15:59:09,TEMP=21.3,BA=5.68,STAT.A=Abs.,ExtBa=13.09
27/08/2022,16:12:08,TEMP=21.1,BA=5.68,STAT.A=Abs.,ExtBa=13.07
27/08/2022,16:23:02,TEMP=21.1,BA=5.68,STAT.A=Abs.,ExtBa=13.06
27/08/2022,16:32:20,TEMP=21.1,BA=5.68,STAT.C=Abs.,ExtBa=13.05
27/08/2022,16:40:22,TEMP=21.1,BA=5.68,STAT.A=Abs.,ExtBa=13.04
27/08/2022,16:47:23,TEMP=21.0,BA=5.68,STAT.A=Abs.,ExtBa=13.02
27/08/2022,16:53:35,TEMP=20.8,BA=5.56,STAT.A=Abs.,ExtBa=13.00
27/08/2022,16:59:05,TEMP=20.8,BA=5.56,STAT.A=Abs.,ExtBa=12.98
27/08/2022,17:04:01,TEMP=20.8,BA=5.52,STAT.B=Abs.,ExtBa=12.96
27/08/2022,17:14:23,TEMP=20.5,BA=5.68,STAT.A=Abs.,ExtBa=13.00
27/08/2022,17:22:38,TEMP=20.5,BA=5.68,STAT.A=Abs.,ExtBa=12.99
27/08/2022,17:29:21,TEMP=20.5,BA=5.68,STAT.A=Abs.,ExtBa=12.85
27/08/2022,17:34:56,TEMP=20.6,BA=5.52,STAT.A=Abs.,ExtBa=12.86
27/08/2022,17:39:40,TEMP=20.9,BA=5.52,STAT.A=Abs.,ExtBa=12.81
27/08/2022,17:43:43,TEMP=20.9,BA=5.52,STAT.A=Abs.,ExtBa=12.80